sensor_id;sensor_type;location;lat;lon;timestamp;pressure;altitude;pressure_sealevel;temperature;humidity
60832;BME280;46665;51.558;-0.448;2023-04-06T00:02:28;100970.44;;;7.80;100.00
60832;BME280;46665;51.558;-0.448;2023-04-06T00:05:11;100966.06;;;7.79;100.00
60832;BME280;46665;51.558;-0.448;2023-04-06T00:07:57;100958.47;;;7.76;100.00
60832;BME280;46665;51.558;-0.448;2023-04-06T00:10:42;100963.31;;;7.74;100.00
60832;BME280;46665;51.558;-0.448;2023-04-06T00:13:26;100956.03;;;7.75;100.00
60832;BME280;46665;51.558;-0.448;2023-04-06T00:16:10;100946.81;;;7.76;100.00
60832;BME280;46665;51.558;-0.448;2023-04-06T00:18:54;100945.19;;;7.75;100.00
60832;BME280;46665;51.558;-0.448;2023-04-06T00:21:38;100944.09;;;7.76;100.00
60832;BME280;46665;51.558;-0.448;2023-04-06T00:24:22;100934.66;;;7.78;100.00
60832;BME280;46665;51.558;-0.448;2023-04-06T00:27:06;100940.88;;;7.79;100.00
60832;BME280;46665;51.558;-0.448;2023-04-06T00:29:50;100933.06;;;7.82;100.00
60832;BME280;46665;51.558;-0.448;2023-04-06T00:32:34;100929.47;;;7.77;100.00
60832;BME280;46665;51.558;-0.448;2023-04-06T00:35:19;100923.00;;;7.78;100.00
60832;BME280;46665;51.558;-0.448;2023-04-06T00:38:03;100923.00;;;7.78;100.00
60832;BME280;46665;51.558;-0.448;2023-04-06T00:40:47;100918.63;;;7.77;100.00
60832;BME280;46665;51.558;-0.448;2023-04-06T00:43:31;100919.72;;;7.76;100.00
60832;BME280;46665;51.558;-0.448;2023-04-06T00:46:16;100907.56;;;7.78;100.00
60832;BME280;46665;51.558;-0.448;2023-04-06T00:49:00;100904.28;;;7.76;100.00
60832;BME280;46665;51.558;-0.448;2023-04-06T00:51:44;100902.38;;;7.77;100.00
60832;BME280;46665;51.558;-0.448;2023-04-06T00:54:29;100892.69;;;7.81;100.00
60832;BME280;46665;51.558;-0.448;2023-04-06T00:57:14;100889.97;;;7.81;100.00
60832;BME280;46665;51.558;-0.448;2023-04-06T00:59:58;100883.75;;;7.80;100.00
60832;BME280;46665;51.558;-0.448;2023-04-06T01:02:42;100885.06;;;7.78;100.00
60832;BME280;46665;51.558;-0.448;2023-04-06T01:05:28;100877.19;;;7.76;100.00
60832;BME280;46665;51.558;-0.448;2023-04-06T01:08:13;100872.59;;;7.77;100.00
60832;BME280;46665;51.558;-0.448;2023-04-06T01:10:59;100865.78;;;7.74;100.00
60832;BME280;46665;51.558;-0.448;2023-04-06T01:13:44;100859.31;;;7.75;100.00
60832;BME280;46665;51.558;-0.448;2023-04-06T01:16:28;100859.31;;;7.75;100.00
60832;BME280;46665;51.558;-0.448;2023-04-06T01:19:13;100850.38;;;7.75;100.00
60832;BME280;46665;51.558;-0.448;2023-04-06T01:21:57;100855.00;;;7.79;100.00
60832;BME280;46665;51.558;-0.448;2023-04-06T01:24:41;100840.91;;;7.77;100.00
60832;BME280;46665;51.558;-0.448;2023-04-06T01:27:25;100844.44;;;7.78;100.00
60832;BME280;46665;51.558;-0.448;2023-04-06T01:30:10;100840.97;;;7.82;100.00
60832;BME280;46665;51.558;-0.448;2023-04-06T01:32:54;100834.41;;;7.78;100.00
60832;BME280;46665;51.558;-0.448;2023-04-06T01:35:38;100830.63;;;7.79;100.00
60832;BME280;46665;51.558;-0.448;2023-04-06T01:38:23;100836.03;;;7.79;100.00
60832;BME280;46665;51.558;-0.448;2023-04-06T01:41:08;100821.13;;;7.77;100.00
60832;BME280;46665;51.558;-0.448;2023-04-06T01:43:51;100818.41;;;7.77;100.00
60832;BME280;46665;51.558;-0.448;2023-04-06T01:46:38;100820.34;;;7.81;100.00
60832;BME280;46665;51.558;-0.448;2023-04-06T01:49:22;100817.59;;;7.76;100.00
60832;BME280;46665;51.558;-0.448;2023-04-06T01:52:06;100811.66;;;7.79;100.00
60832;BME280;46665;51.558;-0.448;2023-04-06T01:54:50;100803.03;;;7.82;100.00
60832;BME280;46665;51.558;-0.448;2023-04-06T01:57:34;100806.56;;;7.83;100.00
60832;BME280;46665;51.558;-0.448;2023-04-06T02:00:18;100793.81;;;7.84;100.00
60832;BME280;46665;51.558;-0.448;2023-04-06T02:03:03;100790.31;;;7.83;100.00
60832;BME280;46665;51.558;-0.448;2023-04-06T02:05:47;100800.63;;;7.86;100.00
60832;BME280;46665;51.558;-0.448;2023-04-06T02:08:31;100791.41;;;7.87;100.00
60832;BME280;46665;51.558;-0.448;2023-04-06T02:11:15;100789.78;;;7.86;100.00
60832;BME280;46665;51.558;-0.448;2023-04-06T02:13:59;100786.81;;;7.88;100.00
60832;BME280;46665;51.558;-0.448;2023-04-06T02:16:44;100784.66;;;7.90;100.00
60832;BME280;46665;51.558;-0.448;2023-04-06T02:19:29;100778.94;;;7.86;100.00
60832;BME280;46665;51.558;-0.448;2023-04-06T02:22:12;100774.91;;;7.89;100.00
60832;BME280;46665;51.558;-0.448;2023-04-06T02:24:57;100766.47;;;7.85;100.00
60832;BME280;46665;51.558;-0.448;2023-04-06T02:27:40;100765.16;;;7.88;100.00
60832;BME280;46665;51.558;-0.448;2023-04-06T02:30:24;100763.50;;;7.87;100.00
60832;BME280;46665;51.558;-0.448;2023-04-06T02:33:08;100760.53;;;7.88;100.00
60832;BME280;46665;51.558;-0.448;2023-04-06T02:35:52;100752.97;;;7.90;100.00
60832;BME280;46665;51.558;-0.448;2023-04-06T02:38:36;100757.88;;;7.93;100.00
60832;BME280;46665;51.558;-0.448;2023-04-06T02:41:20;100754.06;;;7.94;100.00
60832;BME280;46665;51.558;-0.448;2023-04-06T02:44:07;100742.66;;;7.92;100.00
60832;BME280;46665;51.558;-0.448;2023-04-06T02:46:51;100746.50;;;7.96;100.00
60832;BME280;46665;51.558;-0.448;2023-04-06T02:49:36;100740.81;;;7.98;100.00
60832;BME280;46665;51.558;-0.448;2023-04-06T02:52:20;100739.47;;;7.95;100.00
60832;BME280;46665;51.558;-0.448;2023-04-06T02:55:04;100736.75;;;7.95;100.00
60832;BME280;46665;51.558;-0.448;2023-04-06T02:57:50;100733.50;;;7.98;100.00
60832;BME280;46665;51.558;-0.448;2023-04-06T03:00:34;100721.84;;;7.98;100.00
60832;BME280;46665;51.558;-0.448;2023-04-06T03:03:19;100730.03;;;8.03;100.00
60832;BME280;46665;51.558;-0.448;2023-04-06T03:06:04;100731.09;;;8.07;100.00
60832;BME280;46665;51.558;-0.448;2023-04-06T03:08:48;100720.56;;;8.06;100.00
60832;BME280;46665;51.558;-0.448;2023-04-06T03:11:32;100728.69;;;8.06;100.00
60832;BME280;46665;51.558;-0.448;2023-04-06T03:14:15;100723.78;;;8.08;100.00
60832;BME280;46665;51.558;-0.448;2023-04-06T03:17:05;100721.91;;;8.08;100.00
60832;BME280;46665;51.558;-0.448;2023-04-06T03:19:49;100715.13;;;8.06;100.00
60832;BME280;46665;51.558;-0.448;2023-04-06T03:22:33;100713.78;;;8.08;100.00
60832;BME280;46665;51.558;-0.448;2023-04-06T03:25:17;100714.34;;;8.10;100.00
60832;BME280;46665;51.558;-0.448;2023-04-06T03:28:01;100704.31;;;8.11;100.00
60832;BME280;46665;51.558;-0.448;2023-04-06T03:30:45;100693.19;;;8.12;100.00
60832;BME280;46665;51.558;-0.448;2023-04-06T03:33:29;100700.50;;;8.12;100.00
60832;BME280;46665;51.558;-0.448;2023-04-06T03:36:13;100692.13;;;8.13;100.00
60832;BME280;46665;51.558;-0.448;2023-04-06T03:38:57;100696.47;;;8.19;100.00
60832;BME280;46665;51.558;-0.448;2023-04-06T03:41:41;100687.78;;;8.17;100.00
60832;BME280;46665;51.558;-0.448;2023-04-06T03:44:25;100688.63;;;8.18;100.00
60832;BME280;46665;51.558;-0.448;2023-04-06T03:47:09;100685.66;;;8.19;100.00
60832;BME280;46665;51.558;-0.448;2023-04-06T03:49:53;100687.53;;;8.19;100.00
60832;BME280;46665;51.558;-0.448;2023-04-06T03:52:37;100679.41;;;8.19;100.00
60832;BME280;46665;51.558;-0.448;2023-04-06T03:55:21;100683.75;;;8.20;100.00
60832;BME280;46665;51.558;-0.448;2023-04-06T03:58:05;100682.69;;;8.21;100.00
60832;BME280;46665;51.558;-0.448;2023-04-06T04:00:49;100673.47;;;8.22;100.00
60832;BME280;46665;51.558;-0.448;2023-04-06T04:03:33;100676.72;;;8.24;100.00
60832;BME280;46665;51.558;-0.448;2023-04-06T04:06:17;100673.47;;;8.22;100.00
60832;BME280;46665;51.558;-0.448;2023-04-06T04:09:01;100669.41;;;8.24;100.00
60832;BME280;46665;51.558;-0.448;2023-04-06T04:11:45;100661.28;;;8.24;100.00
60832;BME280;46665;51.558;-0.448;2023-04-06T04:14:29;100663.72;;;8.26;100.00
60832;BME280;46665;51.558;-0.448;2023-04-06T04:17:13;100668.59;;;8.29;100.00
60832;BME280;46665;51.558;-0.448;2023-04-06T04:19:57;100666.47;;;8.31;100.00
60832;BME280;46665;51.558;-0.448;2023-04-06T04:22:40;100672.69;;;8.32;100.00
60832;BME280;46665;51.558;-0.448;2023-04-06T04:25:24;100662.66;;;8.32;100.00
60832;BME280;46665;51.558;-0.448;2023-04-06T04:28:08;100666.72;;;8.35;100.00
60832;BME280;46665;51.558;-0.448;2023-04-06T04:30:52;100665.38;;;8.37;100.00
60832;BME280;46665;51.558;-0.448;2023-04-06T04:33:37;100664.00;;;8.35;100.00
60832;BME280;46665;51.558;-0.448;2023-04-06T04:36:21;100661.31;;;8.35;100.00
60832;BME280;46665;51.558;-0.448;2023-04-06T04:39:04;100663.75;;;8.36;100.00
60832;BME280;46665;51.558;-0.448;2023-04-06T04:41:48;100668.69;;;8.39;100.00
60832;BME280;46665;51.558;-0.448;2023-04-06T04:44:32;100656.44;;;8.37;100.00
60832;BME280;46665;51.558;-0.448;2023-04-06T04:47:16;100659.19;;;8.42;100.00
60832;BME280;46665;51.558;-0.448;2023-04-06T04:50:03;100664.38;;;8.43;100.00
60832;BME280;46665;51.558;-0.448;2023-04-06T04:52:48;100655.69;;;8.46;100.00
60832;BME280;46665;51.558;-0.448;2023-04-06T04:55:32;100654.59;;;8.48;100.00
60832;BME280;46665;51.558;-0.448;2023-04-06T04:58:16;100639.97;;;8.43;100.00
60832;BME280;46665;51.558;-0.448;2023-04-06T05:01:00;100647.56;;;8.46;100.00
60832;BME280;46665;51.558;-0.448;2023-04-06T05:03:44;100648.91;;;8.44;100.00
60832;BME280;46665;51.558;-0.448;2023-04-06T05:06:28;100644.28;;;8.44;100.00
60832;BME280;46665;51.558;-0.448;2023-04-06T05:09:12;100643.47;;;8.44;100.00
60832;BME280;46665;51.558;-0.448;2023-04-06T05:11:56;100641.31;;;8.46;100.00
60832;BME280;46665;51.558;-0.448;2023-04-06T05:14:40;100640.47;;;8.45;100.00
60832;BME280;46665;51.558;-0.448;2023-04-06T05:17:25;100643.47;;;8.44;100.00
60832;BME280;46665;51.558;-0.448;2023-04-06T05:20:10;100635.91;;;8.46;100.00
60832;BME280;46665;51.558;-0.448;2023-04-06T05:22:54;100636.97;;;8.45;100.00
60832;BME280;46665;51.558;-0.448;2023-04-06T05:25:38;100640.78;;;8.44;100.00
60832;BME280;46665;51.558;-0.448;2023-04-06T05:28:22;100646.22;;;8.49;100.00
60832;BME280;46665;51.558;-0.448;2023-04-06T05:31:07;100637.53;;;8.47;100.00
60832;BME280;46665;51.558;-0.448;2023-04-06T05:33:51;100639.13;;;8.48;100.00
60832;BME280;46665;51.558;-0.448;2023-04-06T05:36:35;100633.19;;;8.51;100.00
60832;BME280;46665;51.558;-0.448;2023-04-06T05:39:19;100640.25;;;8.52;100.00
60832;BME280;46665;51.558;-0.448;2023-04-06T05:42:04;100637.28;;;8.54;100.00
60832;BME280;46665;51.558;-0.448;2023-04-06T05:44:50;100637.00;;;8.55;100.00
60832;BME280;46665;51.558;-0.448;2023-04-06T05:47:34;100635.94;;;8.56;100.00
60832;BME280;46665;51.558;-0.448;2023-04-06T05:50:18;100629.66;;;8.56;100.00
60832;BME280;46665;51.558;-0.448;2023-04-06T05:53:03;100624.78;;;8.58;100.00
60832;BME280;46665;51.558;-0.448;2023-04-06T05:55:47;100620.47;;;8.57;100.00
60832;BME280;46665;51.558;-0.448;2023-04-06T05:58:31;100632.66;;;8.54;100.00
60832;BME280;46665;51.558;-0.448;2023-04-06T06:01:15;100620.47;;;8.57;100.00
60832;BME280;46665;51.558;-0.448;2023-04-06T06:04:00;100626.44;;;8.59;100.00
60832;BME280;46665;51.558;-0.448;2023-04-06T06:06:45;100631.06;;;8.63;100.00
60832;BME280;46665;51.558;-0.448;2023-04-06T06:09:29;100634.03;;;8.62;100.00
60832;BME280;46665;51.558;-0.448;2023-04-06T06:12:13;100642.16;;;8.62;100.00
60832;BME280;46665;51.558;-0.448;2023-04-06T06:14:57;100638.91;;;8.65;100.00
60832;BME280;46665;51.558;-0.448;2023-04-06T06:17:41;100639.22;;;8.68;100.00
60832;BME280;46665;51.558;-0.448;2023-04-06T06:20:25;100630.78;;;8.65;100.00
60832;BME280;46665;51.558;-0.448;2023-04-06T06:23:09;100640.03;;;8.69;100.00
60832;BME280;46665;51.558;-0.448;2023-04-06T06:25:53;100637.56;;;8.73;100.00
60832;BME280;46665;51.558;-0.448;2023-04-06T06:28:38;100635.41;;;8.75;100.00
60832;BME280;46665;51.558;-0.448;2023-04-06T06:31:21;100630.78;;;8.75;100.00
60832;BME280;46665;51.558;-0.448;2023-04-06T06:34:06;100626.72;;;8.78;100.00
60832;BME280;46665;51.558;-0.448;2023-04-06T06:36:50;100618.88;;;8.86;100.00
60832;BME280;46665;51.558;-0.448;2023-04-06T06:39:35;100619.41;;;8.88;100.00
60832;BME280;46665;51.558;-0.448;2023-04-06T06:42:19;100615.63;;;8.89;100.00
60832;BME280;46665;51.558;-0.448;2023-04-06T06:45:03;100602.59;;;8.92;100.00
60832;BME280;46665;51.558;-0.448;2023-04-06T06:47:47;100597.19;;;8.92;100.00
60832;BME280;46665;51.558;-0.448;2023-04-06T06:50:31;100610.75;;;8.97;100.00
60832;BME280;46665;51.558;-0.448;2023-04-06T06:53:15;100628.94;;;9.06;100.00
60832;BME280;46665;51.558;-0.448;2023-04-06T06:55:59;100640.88;;;9.10;100.00
60832;BME280;46665;51.558;-0.448;2023-04-06T06:58:43;100628.94;;;9.06;100.00
60832;BME280;46665;51.558;-0.448;2023-04-06T07:01:27;100628.66;;;9.03;100.00
60832;BME280;46665;51.558;-0.448;2023-04-06T07:04:11;100628.66;;;9.03;100.00
60832;BME280;46665;51.558;-0.448;2023-04-06T07:06:55;100630.25;;;9.04;100.00
60832;BME280;46665;51.558;-0.448;2023-04-06T07:09:39;100641.97;;;9.04;100.00
60832;BME280;46665;51.558;-0.448;2023-04-06T07:12:24;100635.97;;;8.97;100.00
60832;BME280;46665;51.558;-0.448;2023-04-06T07:15:08;100639.50;;;8.98;100.00
60832;BME280;46665;51.558;-0.448;2023-04-06T07:17:52;100642.22;;;8.98;100.00
60832;BME280;46665;51.558;-0.448;2023-04-06T07:20:38;100643.00;;;8.83;100.00
60832;BME280;46665;51.558;-0.448;2023-04-06T07:23:22;100638.94;;;8.85;100.00
60832;BME280;46665;51.558;-0.448;2023-04-06T07:26:06;100648.72;;;8.86;100.00
60832;BME280;46665;51.558;-0.448;2023-04-06T07:28:50;100648.75;;;8.92;100.00
60832;BME280;46665;51.558;-0.448;2023-04-06T07:31:34;100641.97;;;8.94;100.00
60832;BME280;46665;51.558;-0.448;2023-04-06T07:34:19;100651.16;;;8.88;100.00
60832;BME280;46665;51.558;-0.448;2023-04-06T07:37:04;100652.25;;;8.87;100.00
60832;BME280;46665;51.558;-0.448;2023-04-06T07:39:48;100651.44;;;8.81;100.00
60832;BME280;46665;51.558;-0.448;2023-04-06T07:42:32;100657.69;;;8.82;100.00
60832;BME280;46665;51.558;-0.448;2023-04-06T07:45:16;100660.09;;;8.78;100.00
60832;BME280;46665;51.558;-0.448;2023-04-06T07:48:01;100666.34;;;8.79;100.00
60832;BME280;46665;51.558;-0.448;2023-04-06T07:50:44;100663.09;;;8.77;100.00
60832;BME280;46665;51.558;-0.448;2023-04-06T07:53:29;100666.63;;;8.77;100.00
60832;BME280;46665;51.558;-0.448;2023-04-06T07:56:14;100666.63;;;8.77;100.00
60832;BME280;46665;51.558;-0.448;2023-04-06T07:58:59;100668.50;;;8.72;100.00
60832;BME280;46665;51.558;-0.448;2023-04-06T08:01:43;100672.03;;;8.72;100.00
60832;BME280;46665;51.558;-0.448;2023-04-06T08:04:27;100664.44;;;8.74;100.00
60832;BME280;46665;51.558;-0.448;2023-04-06T08:07:11;100667.69;;;8.71;100.00
60832;BME280;46665;51.558;-0.448;2023-04-06T08:09:56;100667.16;;;8.74;100.00
60832;BME280;46665;51.558;-0.448;2023-04-06T08:12:41;100667.69;;;8.71;100.00
60832;BME280;46665;51.558;-0.448;2023-04-06T08:15:25;100669.59;;;8.81;100.00
60832;BME280;46665;51.558;-0.448;2023-04-06T08:18:09;100657.69;;;8.87;100.00
60832;BME280;46665;51.558;-0.448;2023-04-06T08:20:54;100665.81;;;8.87;100.00
60832;BME280;46665;51.558;-0.448;2023-04-06T08:23:39;100661.22;;;8.93;100.00
60832;BME280;46665;51.558;-0.448;2023-04-06T08:26:23;100663.38;;;8.96;100.00
60832;BME280;46665;51.558;-0.448;2023-04-06T08:29:07;100657.41;;;8.99;100.00
60832;BME280;46665;51.558;-0.448;2023-04-06T08:31:51;100656.09;;;9.06;100.00
60832;BME280;46665;51.558;-0.448;2023-04-06T08:34:35;100665.59;;;9.09;100.00
60832;BME280;46665;51.558;-0.448;2023-04-06T08:37:19;100672.38;;;9.06;100.00
60832;BME280;46665;51.558;-0.448;2023-04-06T08:40:03;100680.75;;;8.95;100.00
60832;BME280;46665;51.558;-0.448;2023-04-06T08:42:55;100670.44;;;8.92;100.00
60832;BME280;46665;51.558;-0.448;2023-04-06T08:45:41;100662.81;;;8.94;100.00
60832;BME280;46665;51.558;-0.448;2023-04-06T08:48:25;100674.25;;;9.01;100.00
60832;BME280;46665;51.558;-0.448;2023-04-06T08:51:10;100673.44;;;9.05;100.00
60832;BME280;46665;51.558;-0.448;2023-04-06T08:53:56;100667.75;;;9.07;100.00
60832;BME280;46665;51.558;-0.448;2023-04-06T08:56:40;100670.19;;;9.14;100.00
60832;BME280;46665;51.558;-0.448;2023-04-06T08:59:25;100665.31;;;9.16;100.00
60832;BME280;46665;51.558;-0.448;2023-04-06T09:02:13;100678.31;;;9.14;100.00
60832;BME280;46665;51.558;-0.448;2023-04-06T09:05:01;100673.19;;;9.17;100.00
60832;BME280;46665;51.558;-0.448;2023-04-06T09:07:45;100686.75;;;9.17;100.00
60832;BME280;46665;51.558;-0.448;2023-04-06T09:10:29;100675.91;;;9.12;100.00
60832;BME280;46665;51.558;-0.448;2023-04-06T09:13:13;100690.03;;;9.19;100.00
60832;BME280;46665;51.558;-0.448;2023-04-06T09:16:01;100686.22;;;9.20;100.00
60832;BME280;46665;51.558;-0.448;2023-04-06T09:18:45;100689.19;;;9.24;100.00
60832;BME280;46665;51.558;-0.448;2023-04-06T09:21:29;100695.16;;;9.26;100.00
60832;BME280;46665;51.558;-0.448;2023-04-06T09:24:14;100692.44;;;9.26;100.00
60832;BME280;46665;51.558;-0.448;2023-04-06T09:26:58;100701.69;;;9.35;100.00
60832;BME280;46665;51.558;-0.448;2023-04-06T09:29:43;100696.53;;;9.33;100.00
60832;BME280;46665;51.558;-0.448;2023-04-06T09:32:27;100688.38;;;9.33;100.00
60832;BME280;46665;51.558;-0.448;2023-04-06T09:35:11;100694.91;;;9.27;100.00
60832;BME280;46665;51.558;-0.448;2023-04-06T09:37:55;100698.69;;;9.26;100.00
60832;BME280;46665;51.558;-0.448;2023-04-06T09:40:50;100700.34;;;9.27;100.00
60832;BME280;46665;51.558;-0.448;2023-04-06T09:43:34;100703.88;;;9.28;100.00
60832;BME280;46665;51.558;-0.448;2023-04-06T09:46:20;100697.34;;;9.24;100.00
60832;BME280;46665;51.558;-0.448;2023-04-06T09:49:06;100704.69;;;9.39;100.00
60832;BME280;46665;51.558;-0.448;2023-04-06T09:51:55;100708.75;;;9.41;100.00
60832;BME280;46665;51.558;-0.448;2023-04-06T09:54:41;100711.47;;;9.41;100.00
60832;BME280;46665;51.558;-0.448;2023-04-06T09:57:47;100717.44;;;9.38;100.00
60832;BME280;46665;51.558;-0.448;2023-04-06T10:03:44;100715.28;;;9.40;100.00
60832;BME280;46665;51.558;-0.448;2023-04-06T10:06:31;100717.19;;;9.45;100.00
60832;BME280;46665;51.558;-0.448;2023-04-06T10:09:23;100721.53;;;9.51;100.00
60832;BME280;46665;51.558;-0.448;2023-04-06T10:12:09;100716.63;;;9.48;100.00
60832;BME280;46665;51.558;-0.448;2023-04-06T10:14:54;100718.25;;;9.59;100.00
60832;BME280;46665;51.558;-0.448;2023-04-06T10:17:39;100721.78;;;9.70;100.00
60832;BME280;46665;51.558;-0.448;2023-04-06T10:23:22;100730.47;;;9.77;100.00
60832;BME280;46665;51.558;-0.448;2023-04-06T10:26:13;100735.38;;;9.70;100.00
60832;BME280;46665;51.558;-0.448;2023-04-06T10:29:03;100735.38;;;9.75;100.00
60832;BME280;46665;51.558;-0.448;2023-04-06T10:31:48;100740.25;;;9.83;100.00
60832;BME280;46665;51.558;-0.448;2023-04-06T10:34:35;100737.22;;;9.95;100.00
60832;BME280;46665;51.558;-0.448;2023-04-06T10:37:19;100739.44;;;9.98;100.00
60832;BME280;46665;51.558;-0.448;2023-04-06T10:40:04;100744.28;;;10.06;100.00
60832;BME280;46665;51.558;-0.448;2023-04-06T10:42:49;100745.63;;;10.14;100.00
60832;BME280;46665;51.558;-0.448;2023-04-06T10:45:33;100759.50;;;10.12;100.00
60832;BME280;46665;51.558;-0.448;2023-04-06T10:48:18;100747.22;;;10.25;100.00
60832;BME280;46665;51.558;-0.448;2023-04-06T10:51:10;100745.34;;;10.20;100.00
60832;BME280;46665;51.558;-0.448;2023-04-06T10:53:55;100745.88;;;10.17;100.00
60832;BME280;46665;51.558;-0.448;2023-04-06T10:56:40;100744.81;;;10.13;100.00
60832;BME280;46665;51.558;-0.448;2023-04-06T10:59:24;100744.81;;;10.18;100.00
60832;BME280;46665;51.558;-0.448;2023-04-06T11:02:08;100744.28;;;10.06;100.00
60832;BME280;46665;51.558;-0.448;2023-04-06T11:04:56;100755.44;;;10.05;100.00
60832;BME280;46665;51.558;-0.448;2023-04-06T11:07:41;100750.81;;;9.90;100.00
60832;BME280;46665;51.558;-0.448;2023-04-06T11:10:25;100763.34;;;9.86;100.00
60832;BME280;46665;51.558;-0.448;2023-04-06T11:13:09;100763.34;;;9.81;100.00
60832;BME280;46665;51.558;-0.448;2023-04-06T11:15:53;100766.09;;;9.75;100.00
60832;BME280;46665;51.558;-0.448;2023-04-06T11:18:37;100761.44;;;9.76;100.00
60832;BME280;46665;51.558;-0.448;2023-04-06T11:24:31;100753.56;;;9.69;100.00
60832;BME280;46665;51.558;-0.448;2023-04-06T11:27:16;100762.25;;;9.76;100.00
60832;BME280;46665;51.558;-0.448;2023-04-06T11:30:01;100768.25;;;9.73;100.00
60832;BME280;46665;51.558;-0.448;2023-04-06T11:32:46;100773.41;;;10.01;100.00
60832;BME280;46665;51.558;-0.448;2023-04-06T11:35:31;100774.19;;;10.16;100.00
60832;BME280;46665;51.558;-0.448;2023-04-06T11:38:18;100770.66;;;10.16;100.00
60832;BME280;46665;51.558;-0.448;2023-04-06T11:41:03;100773.34;;;10.26;100.00
60832;BME280;46665;51.558;-0.448;2023-04-06T11:43:47;100782.06;;;10.18;100.00
60832;BME280;46665;51.558;-0.448;2023-04-06T11:46:31;100770.91;;;10.25;100.00
60832;BME280;46665;51.558;-0.448;2023-04-06T11:49:19;100767.63;;;10.38;100.00
60832;BME280;46665;51.558;-0.448;2023-04-06T11:52:17;100778.81;;;10.21;100.00
60832;BME280;46665;51.558;-0.448;2023-04-06T11:55:13;100780.13;;;10.49;100.00
60832;BME280;46665;51.558;-0.448;2023-04-06T11:57:57;100779.28;;;10.59;100.00
60832;BME280;46665;51.558;-0.448;2023-04-06T12:00:43;100787.94;;;10.71;100.00
60832;BME280;46665;51.558;-0.448;2023-04-06T12:03:29;100777.22;;;10.90;100.00
60832;BME280;46665;51.558;-0.448;2023-04-06T12:06:13;100787.50;;;11.03;100.00
60832;BME280;46665;51.558;-0.448;2023-04-06T12:08:58;100789.38;;;11.08;100.00
60832;BME280;46665;51.558;-0.448;2023-04-06T12:11:41;100789.94;;;11.05;100.00
60832;BME280;46665;51.558;-0.448;2023-04-06T12:14:25;100782.38;;;10.97;100.00
60832;BME280;46665;51.558;-0.448;2023-04-06T12:17:09;100790.84;;;10.85;100.00
60832;BME280;46665;51.558;-0.448;2023-04-06T12:19:54;100786.53;;;10.79;100.00
60832;BME280;46665;51.558;-0.448;2023-04-06T12:22:38;100785.66;;;10.89;100.00
60832;BME280;46665;51.558;-0.448;2023-04-06T12:25:22;100790.81;;;10.95;100.00
60832;BME280;46665;51.558;-0.448;2023-04-06T12:28:06;100786.66;;;11.08;100.00
60832;BME280;46665;51.558;-0.448;2023-04-06T12:30:50;100790.59;;;11.31;100.00
60832;BME280;46665;51.558;-0.448;2023-04-06T12:33:34;100786.00;;;11.66;99.06
60832;BME280;46665;51.558;-0.448;2023-04-06T12:36:19;100787.06;;;12.04;94.86
60832;BME280;46665;51.558;-0.448;2023-04-06T12:39:04;100787.22;;;12.18;93.43
60832;BME280;46665;51.558;-0.448;2023-04-06T12:41:48;100780.81;;;12.28;89.62
60832;BME280;46665;51.558;-0.448;2023-04-06T12:44:32;100779.19;;;12.27;87.40
60832;BME280;46665;51.558;-0.448;2023-04-06T12:47:16;100786.28;;;12.28;84.83
60832;BME280;46665;51.558;-0.448;2023-04-06T12:50:00;100783.59;;;12.23;83.77
60832;BME280;46665;51.558;-0.448;2023-04-06T12:52:44;100785.94;;;12.34;87.31
60832;BME280;46665;51.558;-0.448;2023-04-06T12:55:29;100800.28;;;12.69;83.47
60832;BME280;46665;51.558;-0.448;2023-04-06T12:58:14;100796.91;;;12.77;81.19
60832;BME280;46665;51.558;-0.448;2023-04-06T13:00:59;100798.44;;;12.89;79.81
60832;BME280;46665;51.558;-0.448;2023-04-06T13:03:46;100788.09;;;13.05;77.33
60832;BME280;46665;51.558;-0.448;2023-04-06T13:06:31;100789.69;;;13.30;77.36
60832;BME280;46665;51.558;-0.448;2023-04-06T13:09:14;100780.66;;;13.48;74.85
60832;BME280;46665;51.558;-0.448;2023-04-06T13:11:59;100780.59;;;13.86;75.37
60832;BME280;46665;51.558;-0.448;2023-04-06T13:14:44;100799.16;;;13.89;71.09
60832;BME280;46665;51.558;-0.448;2023-04-06T13:17:34;100805.22;;;13.67;70.61
60832;BME280;46665;51.558;-0.448;2023-04-06T13:20:19;100798.34;;;13.37;74.60
60832;BME280;46665;51.558;-0.448;2023-04-06T13:23:03;100801.66;;;12.91;74.14
60832;BME280;46665;51.558;-0.448;2023-04-06T13:25:47;100802.78;;;12.66;74.08
60832;BME280;46665;51.558;-0.448;2023-04-06T13:28:32;100808.63;;;12.30;75.88
60832;BME280;46665;51.558;-0.448;2023-04-06T13:31:16;100811.19;;;12.21;78.24
60832;BME280;46665;51.558;-0.448;2023-04-06T13:34:00;100797.81;;;12.20;81.44
60832;BME280;46665;51.558;-0.448;2023-04-06T13:36:44;100802.78;;;12.42;80.89
60832;BME280;46665;51.558;-0.448;2023-04-06T13:39:28;100805.06;;;12.58;74.46
60832;BME280;46665;51.558;-0.448;2023-04-06T13:42:13;100811.63;;;12.82;78.52
60832;BME280;46665;51.558;-0.448;2023-04-06T13:44:57;100797.91;;;12.87;74.05
60832;BME280;46665;51.558;-0.448;2023-04-06T13:47:42;100806.91;;;13.06;73.00
60832;BME280;46665;51.558;-0.448;2023-04-06T13:50:29;100809.03;;;12.90;69.41
60832;BME280;46665;51.558;-0.448;2023-04-06T13:53:13;100816.44;;;12.90;70.05
60832;BME280;46665;51.558;-0.448;2023-04-06T13:55:58;100809.50;;;12.73;71.25
60832;BME280;46665;51.558;-0.448;2023-04-06T13:58:42;100816.09;;;12.72;72.13
60832;BME280;46665;51.558;-0.448;2023-04-06T14:01:26;100824.06;;;12.69;73.63
60832;BME280;46665;51.558;-0.448;2023-04-06T14:04:10;100821.78;;;12.52;71.42
60832;BME280;46665;51.558;-0.448;2023-04-06T14:06:54;100819.06;;;12.52;72.43
60832;BME280;46665;51.558;-0.448;2023-04-06T14:09:38;100819.63;;;12.49;72.23
60832;BME280;46665;51.558;-0.448;2023-04-06T14:12:22;100822.06;;;12.50;72.65
60832;BME280;46665;51.558;-0.448;2023-04-06T14:15:07;100826.75;;;12.45;74.72
60832;BME280;46665;51.558;-0.448;2023-04-06T14:17:52;100832.28;;;12.40;76.66